Time;durP1;ratioP1;P1;durP2;ratioP2;P2;SDS_P1;SDS_P2;PMS_P1;PMS_P2;Temp;Humidity;BMP_temperature;BMP_pressure;BME280_temperature;BME280_humidity;BME280_pressure;Samples;Min_cycle;Max_cycle;Signal;HPM_P1;HPM_P2
2021/01/07 00:01:40;;;;;;;5.33;4.83;;;6.60;70.40;;;;;;4897329;29;20459;-76
2021/01/07 00:04:07;;;;;;;5.70;5.20;;;6.50;70.40;;;;;;4897103;29;20488;-76
2021/01/07 00:06:34;;;;;;;6.00;5.50;;;6.50;70.50;;;;;;4896609;29;20467;-76
2021/01/07 00:09:01;;;;;;;5.30;4.90;;;6.50;70.50;;;;;;4891898;29;20572;-76
2021/01/07 00:11:28;;;;;;;6.10;5.60;;;6.50;71.10;;;;;;4897172;29;20862;-77
2021/01/07 00:13:55;;;;;;;6.47;5.87;;;6.40;70.30;;;;;;4896613;29;20980;-76
2021/01/07 00:16:21;;;;;;;5.17;4.77;;;6.40;70.40;;;;;;4896423;29;20456;-76
2021/01/07 00:18:48;;;;;;;9.70;5.40;;;6.40;70.60;;;;;;4896415;29;20507;-75
2021/01/07 00:21:14;;;;;;;5.17;4.70;;;6.40;70.70;;;;;;4895233;29;20460;-75
2021/01/07 00:23:42;;;;;;;5.93;5.33;;;6.40;70.80;;;;;;4896563;29;20894;-75
2021/01/07 00:26:09;;;;;;;6.40;5.80;;;6.40;70.60;;;;;;4897341;29;21002;-76
2021/01/07 00:28:39;;;;;;;6.40;5.80;;;6.40;70.20;;;;;;4898465;29;20492;-75
2021/01/07 00:31:06;;;;;;;5.93;5.43;;;6.40;70.30;;;;;;4899611;29;20459;-75
2021/01/07 00:33:32;;;;;;;5.97;5.43;;;6.40;70.30;;;;;;4900577;29;20509;-76
2021/01/07 00:35:59;;;;;;;5.23;4.77;;;6.40;70.50;;;;;;4900889;29;20495;-76
2021/01/07 00:38:25;;;;;;;5.60;5.10;;;6.40;70.70;;;;;;4900048;29;20831;-76
2021/01/07 00:40:52;;;;;;;4.97;4.57;;;6.40;70.80;;;;;;4900178;29;20880;-76
2021/01/07 00:43:18;;;;;;;5.40;5.00;;;6.40;70.80;;;;;;4900647;29;20459;-76
2021/01/07 00:45:46;;;;;;;5.33;4.83;;;6.40;70.70;;;;;;4900000;29;20471;-77
2021/01/07 00:48:13;;;;;;;6.57;5.47;;;6.50;70.80;;;;;;4899053;29;20458;-76
2021/01/07 00:50:39;;;;;;;5.80;5.30;;;6.40;70.80;;;;;;4900034;29;20468;-77
2021/01/07 00:53:06;;;;;;;5.83;5.23;;;6.40;70.60;;;;;;4900071;29;20985;-77
2021/01/07 00:55:32;;;;;;;5.70;5.20;;;6.40;70.70;;;;;;4900236;29;20470;-77
2021/01/07 00:57:59;;;;;;;5.63;5.00;;;6.40;70.70;;;;;;4900662;29;20554;-77
2021/01/07 01:00:26;;;;;;;5.87;5.20;;;6.40;70.50;;;;;;4900401;29;20462;-77
2021/01/07 01:02:53;;;;;;;5.03;4.53;;;6.50;70.50;;;;;;4900744;29;20463;-77
2021/01/07 01:05:19;;;;;;;6.30;5.80;;;6.50;70.50;;;;;;4899282;29;20457;-77
2021/01/07 01:07:46;;;;;;;6.67;6.00;;;6.50;70.70;;;;;;4900005;29;20459;-76
2021/01/07 01:10:13;;;;;;;62.60;36.63;;;6.40;70.70;;;;;;4899880;29;20502;-75
2021/01/07 01:12:40;;;;;;;8.33;6.50;;;6.40;70.70;;;;;;4900006;29;20838;-75
2021/01/07 01:15:09;;;;;;;7.03;6.10;;;6.40;70.80;;;;;;4898656;29;20957;-75
2021/01/07 01:17:36;;;;;;;6.63;6.03;;;6.40;70.30;;;;;;4900034;29;20463;-77
2021/01/07 01:20:07;;;;;;;5.67;5.10;;;6.40;70.30;;;;;;4899944;29;20960;-77
2021/01/07 01:22:34;;;;;;;6.37;5.77;;;6.40;70.50;;;;;;4899473;29;20495;-77
2021/01/07 01:25:01;;;;;;;6.83;5.60;;;6.40;70.40;;;;;;4899990;29;20472;-77
2021/01/07 01:27:28;;;;;;;5.90;5.40;;;6.40;70.40;;;;;;4900179;29;20462;-78
2021/01/07 01:29:55;;;;;;;6.13;5.53;;;6.40;70.70;;;;;;4899741;29;20491;-78
2021/01/07 01:32:22;;;;;;;6.53;5.93;;;6.40;70.70;;;;;;4898824;29;20507;-78
2021/01/07 01:34:49;;;;;;;5.67;5.10;;;6.40;70.80;;;;;;4898870;29;20465;-76
2021/01/07 01:37:17;;;;;;;6.97;5.97;;;6.40;70.90;;;;;;4899365;29;20988;-76
2021/01/07 01:39:43;;;;;;;5.90;5.40;;;6.40;71.00;;;;;;4899853;29;20456;-76
2021/01/07 01:42:12;;;;;;;6.40;5.90;;;6.40;71.20;;;;;;4897713;29;20460;-77
2021/01/07 01:44:41;;;;;;;5.10;4.70;;;6.40;71.20;;;;;;4899217;29;20546;-77
2021/01/07 01:47:08;;;;;;;5.87;5.37;;;6.40;71.30;;;;;;4899293;29;20479;-77
2021/01/07 01:49:34;;;;;;;6.00;5.50;;;6.40;71.30;;;;;;4899589;29;21030;-77
2021/01/07 01:52:01;;;;;;;6.07;5.47;;;6.40;71.30;;;;;;4899215;29;20455;-77
2021/01/07 01:54:30;;;;;;;6.60;5.80;;;6.40;71.30;;;;;;4898591;29;20459;-77
2021/01/07 01:56:58;;;;;;;5.73;5.23;;;6.40;71.20;;;;;;4886095;29;20512;-76
2021/01/07 01:59:32;;;;;;;6.00;5.40;;;6.40;70.60;;;;;;4899367;29;20467;-77
2021/01/07 02:02:05;;;;;;;5.50;5.00;;;6.40;70.70;;;;;;4899326;29;20554;-76
2021/01/07 02:04:32;;;;;;;6.17;5.57;;;6.40;70.30;;;;;;4898972;29;20463;-76
2021/01/07 02:07:02;;;;;;;5.40;4.80;;;6.40;70.10;;;;;;4899085;29;20464;-75
2021/01/07 02:09:30;;;;;;;6.40;5.83;;;6.50;70.00;;;;;;4896589;29;20575;-76
2021/01/07 02:11:58;;;;;;;6.53;5.20;;;6.50;69.80;;;;;;4899248;29;20466;-76
2021/01/07 02:14:24;;;;;;;6.00;5.40;;;6.50;69.60;;;;;;4899011;29;20554;-75
2021/01/07 02:16:51;;;;;;;9.93;5.10;;;6.50;69.70;;;;;;4899132;29;20854;-76
2021/01/07 02:19:17;;;;;;;5.90;4.80;;;6.50;69.80;;;;;;4898411;29;20539;-77
2021/01/07 02:21:45;;;;;;;5.60;5.17;;;6.50;69.90;;;;;;4898846;29;20539;-76
2021/01/07 02:24:13;;;;;;;7.47;6.77;;;6.50;70.00;;;;;;4899037;29;20531;-77
2021/01/07 02:26:41;;;;;;;6.23;5.60;;;6.50;70.10;;;;;;4898387;29;20475;-77
2021/01/07 02:29:08;;;;;;;6.93;6.23;;;6.50;70.00;;;;;;4898307;29;20491;-77
2021/01/07 02:31:34;;;;;;;6.13;5.60;;;6.50;69.90;;;;;;4899166;29;20511;-77
2021/01/07 02:34:01;;;;;;;7.00;5.93;;;6.50;70.10;;;;;;4896423;29;20457;-76
2021/01/07 02:36:27;;;;;;;5.93;5.33;;;6.50;69.90;;;;;;4897076;29;20499;-77
2021/01/07 02:38:55;;;;;;;5.93;5.37;;;6.50;69.80;;;;;;4897927;29;20460;-77
2021/01/07 02:41:22;;;;;;;8.17;5.13;;;6.50;69.60;;;;;;4898479;29;20453;-76
2021/01/07 02:43:48;;;;;;;6.57;6.03;;;6.50;69.80;;;;;;4898735;29;20456;-76
2021/01/07 02:46:15;;;;;;;5.23;4.73;;;6.50;69.60;;;;;;4898216;29;20531;-77
2021/01/07 02:48:41;;;;;;;5.83;5.33;;;6.50;69.50;;;;;;4898264;29;20669;-77
2021/01/07 02:51:08;;;;;;;4.90;4.50;;;6.50;69.50;;;;;;4897644;29;20800;-77
2021/01/07 02:53:34;;;;;;;5.90;5.40;;;6.40;69.40;;;;;;4897880;29;20460;-77
2021/01/07 02:56:02;;;;;;;6.70;5.53;;;6.40;69.40;;;;;;4897799;29;20457;-77
2021/01/07 02:58:28;;;;;;;6.60;5.70;;;6.40;69.80;;;;;;4897798;29;20467;-76
2021/01/07 03:00:55;;;;;;;5.40;4.80;;;6.40;69.60;;;;;;4896464;29;20456;-77
2021/01/07 03:03:21;;;;;;;6.13;5.53;;;6.30;69.30;;;;;;4898530;29;20463;-77
2021/01/07 03:05:48;;;;;;;5.60;5.10;;;6.30;69.30;;;;;;4897542;29;20999;-77
2021/01/07 03:08:14;;;;;;;5.70;5.20;;;6.30;69.50;;;;;;4897756;29;21024;-77
2021/01/07 03:10:41;;;;;;;4.90;4.40;;;6.30;69.60;;;;;;4898289;29;20550;-76
2021/01/07 03:13:08;;;;;;;5.63;4.80;;;6.30;69.40;;;;;;4898563;29;20856;-76
2021/01/07 03:15:34;;;;;;;5.87;5.30;;;6.30;69.50;;;;;;4898124;29;20471;-77
2021/01/07 03:18:01;;;;;;;5.23;4.80;;;6.30;69.30;;;;;;4897336;29;20456;-77
2021/01/07 03:20:28;;;;;;;4.93;4.43;;;6.20;69.10;;;;;;4897715;29;20459;-77
2021/01/07 03:22:54;;;;;;;4.73;4.40;;;6.20;69.40;;;;;;4897234;29;20460;-77
2021/01/07 03:25:21;;;;;;;4.63;4.20;;;6.10;69.50;;;;;;4897891;29;20452;-78
2021/01/07 03:27:47;;;;;;;4.70;4.30;;;6.20;69.70;;;;;;4896001;29;20465;-77
2021/01/07 03:30:16;;;;;;;4.60;4.07;;;6.20;69.50;;;;;;4897533;29;21010;-75
2021/01/07 03:32:42;;;;;;;5.03;4.50;;;6.10;69.30;;;;;;4897213;29;20470;-76
2021/01/07 03:35:10;;;;;;;4.30;4.00;;;6.10;69.40;;;;;;4897936;29;20903;-77
2021/01/07 03:37:36;;;;;;;5.03;4.50;;;6.10;69.60;;;;;;4896469;29;20850;-76
2021/01/07 03:40:04;;;;;;;5.23;4.60;;;6.10;69.90;;;;;;4896256;29;20474;-76
2021/01/07 03:42:31;;;;;;;5.90;4.60;;;6.00;69.70;;;;;;4897837;29;20878;-77
2021/01/07 03:44:57;;;;;;;5.67;3.90;;;6.10;70.80;;;;;;4897605;29;20456;-77
2021/01/07 03:47:26;;;;;;;4.10;3.37;;;6.10;69.80;;;;;;4896959;29;20491;-77
2021/01/07 03:49:53;;;;;;;3.80;3.50;;;6.10;69.70;;;;;;4897370;29;20504;-77
2021/01/07 03:52:19;;;;;;;3.77;3.43;;;6.10;69.30;;;;;;4896714;29;20466;-77
2021/01/07 03:54:46;;;;;;;4.63;3.77;;;6.10;69.30;;;;;;4896092;29;20463;-77
2021/01/07 03:57:12;;;;;;;3.77;3.37;;;6.10;69.40;;;;;;4897103;29;20539;-77
2021/01/07 03:59:39;;;;;;;4.50;3.70;;;6.20;69.30;;;;;;4896891;29;20467;-77
2021/01/07 04:02:05;;;;;;;4.10;3.70;;;6.20;69.20;;;;;;4897272;29;20471;-77
2021/01/07 04:04:33;;;;;;;4.67;4.20;;;6.10;68.80;;;;;;4897365;29;20462;-76
2021/01/07 04:06:59;;;;;;;4.90;4.47;;;6.10;68.90;;;;;;4896994;29;20471;-77
2021/01/07 04:09:26;;;;;;;3.80;3.50;;;6.10;69.70;;;;;;4895040;29;20487;-77
2021/01/07 04:11:52;;;;;;;3.80;3.50;;;6.10;69.00;;;;;;4897193;29;20463;-75
2021/01/07 04:14:19;;;;;;;3.80;3.50;;;6.10;69.00;;;;;;4897363;29;20470;-78
2021/01/07 04:16:45;;;;;;;3.80;3.50;;;6.10;69.00;;;;;;4897504;29;20953;-77
2021/01/07 04:19:12;;;;;;;4.37;4.00;;;6.10;68.90;;;;;;4897028;29;20511;-77
2021/01/07 04:21:45;;;;;;;4.03;3.63;;;6.10;68.80;;;;;;4895419;29;20477;-75
2021/01/07 04:24:13;;;;;;;3.80;3.50;;;6.10;68.70;;;;;;4896856;29;20544;-77
2021/01/07 04:26:41;;;;;;;4.63;4.20;;;6.10;68.80;;;;;;4896814;29;20456;-77
2021/01/07 04:29:07;;;;;;;3.77;3.43;;;6.10;68.80;;;;;;4897024;29;20579;-74
2021/01/07 04:31:34;;;;;;;5.13;4.63;;;6.10;68.80;;;;;;4897142;29;20487;-75
2021/01/07 04:34:01;;;;;;;4.27;3.97;;;6.10;68.60;;;;;;4897505;29;20460;-74
2021/01/07 04:36:27;;;;;;;3.70;3.40;;;6.10;69.10;;;;;;4896665;29;20951;-76
2021/01/07 04:38:55;;;;;;;4.07;3.67;;;6.10;69.10;;;;;;4896187;29;20460;-76
2021/01/07 04:41:22;;;;;;;4.10;3.70;;;6.10;68.90;;;;;;4895958;29;20470;-76
2021/01/07 04:43:55;;;;;;;3.50;3.20;;;6.10;69.00;;;;;;4897326;29;20456;-76
2021/01/07 04:46:21;;;;;;;4.90;4.40;;;6.10;68.90;;;;;;4896816;29;20570;-77
2021/01/07 04:48:48;;;;;;;6.20;4.80;;;6.10;68.80;;;;;;4894885;29;21030;-77
2021/01/07 04:51:15;;;;;;;5.40;4.33;;;6.10;68.90;;;;;;4896520;29;20487;-77
2021/01/07 04:53:42;;;;;;;3.83;3.47;;;6.10;68.70;;;;;;4895779;29;20503;-76
2021/01/07 04:56:10;;;;;;;4.67;3.40;;;6.10;68.70;;;;;;4896725;29;20988;-76
2021/01/07 04:58:36;;;;;;;4.83;4.37;;;6.10;68.50;;;;;;4896891;29;20459;-77
2021/01/07 05:01:03;;;;;;;5.13;4.63;;;6.10;68.50;;;;;;4896674;29;20460;-77
2021/01/07 05:03:31;;;;;;;5.47;4.27;;;6.10;68.60;;;;;;4896503;29;20456;-76
2021/01/07 05:05:58;;;;;;;4.77;4.40;;;6.10;69.00;;;;;;4896565;29;20452;-77
2021/01/07 05:08:24;;;;;;;4.60;4.17;;;6.10;69.10;;;;;;4896192;29;20452;-77
2021/01/07 05:10:52;;;;;;;5.43;4.93;;;6.10;69.20;;;;;;4896180;29;20500;-77
2021/01/07 05:13:20;;;;;;;6.13;4.60;;;6.10;69.40;;;;;;4896987;29;20466;-77
2021/01/07 05:15:48;;;;;;;5.83;5.30;;;6.10;69.40;;;;;;4897210;29;21003;-75
2021/01/07 05:18:14;;;;;;;6.47;5.90;;;6.10;69.30;;;;;;4899947;29;20470;-74
2021/01/07 05:20:41;;;;;;;5.27;4.77;;;6.10;69.20;;;;;;4900107;29;20984;-77
2021/01/07 05:23:09;;;;;;;7.23;5.40;;;6.20;69.20;;;;;;4899873;29;20976;-77
2021/01/07 05:25:41;;;;;;;4.90;4.30;;;6.20;69.20;;;;;;4885269;29;20458;-77
2021/01/07 05:28:09;;;;;;;4.80;4.40;;;6.20;69.40;;;;;;4899942;29;20458;-75
2021/01/07 05:30:36;;;;;;;5.37;4.87;;;6.30;69.50;;;;;;4900060;29;21071;-74
2021/01/07 05:33:04;;;;;;;7.50;5.80;;;6.20;69.30;;;;;;4899746;29;20467;-77
2021/01/07 05:35:32;;;;;;;6.30;5.20;;;6.30;69.20;;;;;;4899394;29;20460;-77
2021/01/07 05:37:59;;;;;;;6.57;5.10;;;6.30;68.90;;;;;;4899264;29;20460;-77
2021/01/07 05:40:26;;;;;;;6.27;5.77;;;6.20;68.70;;;;;;4899364;29;21224;-77
2021/01/07 05:42:58;;;;;;;8.57;4.70;;;6.20;68.50;;;;;;4898098;29;20963;-77
2021/01/07 05:45:33;;;;;;;7.10;5.87;;;6.10;68.30;;;;;;4898468;29;20454;-76
2021/01/07 05:48:02;;;;;;;5.93;5.33;;;6.20;68.70;;;;;;4897957;29;20455;-76
2021/01/07 05:50:35;;;;;;;5.03;4.50;;;6.20;68.80;;;;;;4899891;29;20515;-76
2021/01/07 05:53:02;;;;;;;6.10;5.50;;;6.10;68.40;;;;;;4899551;29;20952;-76
2021/01/07 05:55:29;;;;;;;7.73;5.53;;;6.00;68.20;;;;;;4898997;29;20991;-76
2021/01/07 05:57:59;;;;;;;7.03;5.10;;;6.10;68.60;;;;;;4898731;29;20473;-76
2021/01/07 06:00:31;;;;;;;7.23;5.50;;;6.10;68.90;;;;;;4898889;29;20495;-76
2021/01/07 06:02:59;;;;;;;6.90;6.20;;;6.10;69.00;;;;;;4899110;29;20543;-76
2021/01/07 06:05:26;;;;;;;6.53;5.90;;;6.20;69.10;;;;;;4899042;29;20884;-76
2021/01/07 06:07:55;;;;;;;5.80;5.07;;;6.20;69.10;;;;;;4896909;29;20576;-77
2021/01/07 06:10:23;;;;;;;7.90;6.00;;;6.30;69.00;;;;;;4898986;29;21043;-76
2021/01/07 06:12:50;;;;;;;7.47;6.40;;;6.30;68.90;;;;;;4898767;29;20463;-76
2021/01/07 06:15:18;;;;;;;8.07;6.10;;;6.30;69.00;;;;;;4898787;29;20965;-76
2021/01/07 06:17:46;;;;;;;6.40;5.70;;;6.20;68.80;;;;;;4898656;29;20455;-76
2021/01/07 06:20:14;;;;;;;9.53;7.00;;;6.20;68.90;;;;;;4899074;29;20472;-76
2021/01/07 06:22:44;;;;;;;7.77;5.73;;;6.20;69.00;;;;;;4899068;29;20967;-76
2021/01/07 06:25:12;;;;;;;7.10;6.40;;;6.20;69.10;;;;;;4897860;29;20464;-76
2021/01/07 06:27:42;;;;;;;7.57;6.80;;;6.20;69.10;;;;;;4898628;29;20835;-76
2021/01/07 06:30:34;;;;;;;11.20;6.70;;;6.20;68.90;;;;;;4897640;29;20502;-76
2021/01/07 06:33:09;;;;;;;6.93;6.03;;;6.20;68.80;;;;;;4898986;29;20838;-76
2021/01/07 06:35:38;;;;;;;9.73;6.47;;;6.20;68.90;;;;;;4897002;29;20459;-76
2021/01/07 06:38:06;;;;;;;9.73;7.30;;;6.20;68.90;;;;;;4897969;29;20462;-75
2021/01/07 06:40:41;;;;;;;7.60;6.73;;;6.20;69.00;;;;;;4898165;29;20466;-75
2021/01/07 06:43:19;;;;;;;7.40;6.60;;;6.20;69.00;;;;;;4888864;29;20449;-74
2021/01/07 06:45:53;;;;;;;6.87;6.13;;;6.20;69.10;;;;;;4898239;29;20822;-74
2021/01/07 06:48:33;;;;;;;8.30;6.80;;;6.30;69.10;;;;;;4884726;29;20461;-75
2021/01/07 06:51:01;;;;;;;7.87;6.93;;;6.30;69.10;;;;;;4896862;29;20849;-76
2021/01/07 06:53:28;;;;;;;7.20;6.13;;;6.30;68.90;;;;;;4898031;29;21120;-76
2021/01/07 06:56:14;;;;;;;10.60;7.83;;;6.30;68.80;;;;;;4898584;29;20471;-77
2021/01/07 06:58:42;;;;;;;6.73;5.80;;;6.30;69.00;;;;;;4897662;29;20498;-76
2021/01/07 07:01:11;;;;;;;9.20;7.37;;;6.30;69.00;;;;;;4895840;29;20852;-76
2021/01/07 07:03:52;;;;;;;8.80;6.63;;;6.30;69.00;;;;;;4898042;29;20510;-75
2021/01/07 07:06:25;;;;;;;8.57;7.53;;;6.30;68.70;;;;;;4897296;29;20463;-76
2021/01/07 07:08:52;;;;;;;11.03;7.90;;;6.30;68.70;;;;;;4897514;29;20897;-75
2021/01/07 07:11:33;;;;;;;13.17;8.13;;;6.30;68.10;;;;;;4897423;29;20474;-75
2021/01/07 07:14:03;;;;;;;10.77;7.43;;;6.20;68.30;;;;;;4882457;29;20460;-76
2021/01/07 07:16:37;;;;;;;9.70;8.47;;;6.20;68.70;;;;;;4896739;29;20464;-76
2021/01/07 07:19:07;;;;;;;8.10;6.53;;;6.10;68.50;;;;;;4897693;29;20495;-76
2021/01/07 07:21:35;;;;;;;10.47;7.70;;;6.00;68.20;;;;;;4897439;29;20901;-76
2021/01/07 07:24:14;;;;;;;9.10;7.90;;;6.00;68.50;;;;;;4897848;29;20794;-75
2021/01/07 07:26:42;;;;;;;9.83;7.97;;;6.00;68.80;;;;;;4897834;29;20461;-75
2021/01/07 07:29:10;;;;;;;8.67;7.73;;;5.90;68.90;;;;;;4896225;29;20522;-76
2021/01/07 07:31:45;;;;;;;9.03;8.07;;;6.00;69.20;;;;;;4896864;29;20538;-76
2021/01/07 07:34:13;;;;;;;11.07;8.57;;;6.00;69.30;;;;;;4897041;29;20454;-76
2021/01/07 07:36:40;;;;;;;10.73;7.60;;;6.00;69.20;;;;;;4897462;29;20823;-75
2021/01/07 07:39:09;;;;;;;12.63;9.30;;;6.10;69.20;;;;;;4896686;29;20459;-76
2021/01/07 07:41:41;;;;;;;9.40;8.40;;;6.20;69.30;;;;;;4896763;29;20515;-77
2021/01/07 07:44:08;;;;;;;10.30;7.90;;;6.20;69.20;;;;;;4895107;29;20474;-76
2021/01/07 07:46:37;;;;;;;10.37;8.27;;;6.20;69.10;;;;;;4896704;29;20479;-75
2021/01/07 07:49:05;;;;;;;8.60;7.70;;;6.30;69.10;;;;;;4896676;29;20546;-76
2021/01/07 07:51:31;;;;;;;9.73;8.73;;;6.30;69.10;;;;;;4897169;29;20459;-76
2021/01/07 07:54:06;;;;;;;9.57;8.00;;;6.30;69.10;;;;;;4896603;29;20811;-76
2021/01/07 07:56:33;;;;;;;9.63;7.40;;;6.30;68.80;;;;;;4895552;29;20472;-76
2021/01/07 07:59:02;;;;;;;12.00;8.37;;;6.30;68.50;;;;;;4897275;29;20966;-77
2021/01/07 08:01:46;;;;;;;11.87;8.33;;;6.30;68.50;;;;;;4896881;29;20487;-76
2021/01/07 08:04:14;;;;;;;9.73;8.37;;;6.30;68.70;;;;;;4893114;29;20455;-76
2021/01/07 08:06:42;;;;;;;10.03;9.00;;;6.30;68.80;;;;;;4896947;29;20458;-76
2021/01/07 08:09:09;;;;;;;12.70;9.87;;;6.30;68.80;;;;;;4896099;29;20477;-76
2021/01/07 08:11:47;;;;;;;9.03;8.07;;;6.30;68.90;;;;;;4897263;29;20467;-77
2021/01/07 08:14:18;;;;;;;10.47;9.20;;;6.30;68.80;;;;;;4897337;29;20467;-76
2021/01/07 08:16:45;;;;;;;8.20;7.40;;;6.30;68.60;;;;;;4896715;29;20957;-76
2021/01/07 08:19:30;;;;;;;8.80;7.90;;;6.30;68.80;;;;;;4896990;29;20459;-76
2021/01/07 08:21:56;;;;;;;12.63;8.93;;;6.30;68.70;;;;;;4886609;29;20566;-76
2021/01/07 08:24:25;;;;;;;11.17;7.77;;;6.30;68.80;;;;;;4896202;29;20801;-76
2021/01/07 08:27:16;;;;;;;14.80;8.03;;;6.40;68.90;;;;;;4896719;29;20484;-77
2021/01/07 08:29:46;;;;;;;8.57;7.67;;;6.50;68.60;;;;;;4887473;29;20523;-75
2021/01/07 08:32:17;;;;;;;8.03;7.20;;;6.50;68.30;;;;;;4896865;29;20533;-75
2021/01/07 08:34:45;;;;;;;11.33;8.60;;;6.50;68.20;;;;;;4896423;29;20458;-76
2021/01/07 08:37:13;;;;;;;9.77;8.77;;;6.60;68.20;;;;;;4896434;29;20466;-76
2021/01/07 08:39:41;;;;;;;11.87;9.00;;;6.60;68.50;;;;;;4896477;29;20538;-75
2021/01/07 08:42:08;;;;;;;11.93;7.57;;;6.70;68.70;;;;;;4878513;29;20515;-75
2021/01/07 08:44:36;;;;;;;8.33;7.57;;;6.70;68.50;;;;;;4878720;29;20463;-75
2021/01/07 08:47:04;;;;;;;10.60;8.53;;;6.80;68.20;;;;;;4878354;29;21011;-75
2021/01/07 08:49:30;;;;;;;11.00;9.20;;;6.80;67.70;;;;;;4892098;29;20543;-75
2021/01/07 08:52:00;;;;;;;11.30;8.67;;;6.80;67.40;;;;;;4900748;29;21015;-75
2021/01/07 08:54:26;;;;;;;10.43;9.30;;;6.80;67.30;;;;;;4900728;29;20546;-75
2021/01/07 08:56:54;;;;;;;10.97;8.27;;;6.80;67.70;;;;;;4900798;29;20460;-75
2021/01/07 08:59:30;;;;;;;10.20;8.70;;;6.80;68.00;;;;;;4900837;29;20547;-75
2021/01/07 09:01:57;;;;;;;9.60;8.20;;;6.80;68.10;;;;;;4900515;29;20451;-75
2021/01/07 09:04:33;;;;;;;9.40;7.67;;;6.90;68.30;;;;;;4900132;29;20474;-75
2021/01/07 09:07:05;;;;;;;9.00;7.13;;;6.90;67.80;;;;;;4900614;29;20475;-75
2021/01/07 09:09:40;;;;;;;9.63;7.30;;;7.00;67.50;;;;;;4900172;29;20508;-75
2021/01/07 09:12:15;;;;;;;8.27;6.90;;;6.90;67.20;;;;;;4900422;29;20455;-75
2021/01/07 09:14:50;;;;;;;9.63;8.10;;;6.90;67.00;;;;;;4900273;29;21054;-75
2021/01/07 09:17:18;;;;;;;8.50;7.63;;;7.00;66.60;;;;;;4899812;29;20457;-75
2021/01/07 09:19:46;;;;;;;9.60;7.63;;;6.90;66.50;;;;;;4900095;29;20521;-76
2021/01/07 09:22:20;;;;;;;8.00;5.80;;;6.90;66.50;;;;;;4900251;29;20464;-76
2021/01/07 09:24:47;;;;;;;8.60;7.70;;;6.90;66.70;;;;;;4900061;29;20462;-76
2021/01/07 09:27:15;;;;;;;9.13;7.17;;;6.90;66.60;;;;;;4900290;29;20964;-76
2021/01/07 09:29:42;;;;;;;7.70;6.80;;;6.90;66.60;;;;;;4900127;29;20554;-76
2021/01/07 09:32:10;;;;;;;7.60;6.80;;;7.00;66.50;;;;;;4900013;29;20471;-76
2021/01/07 09:34:37;;;;;;;7.53;6.20;;;7.00;66.20;;;;;;4900053;29;20488;-76
2021/01/07 09:37:08;;;;;;;8.00;6.37;;;7.00;65.70;;;;;;4899701;29;20523;-76
2021/01/07 09:39:35;;;;;;;9.67;7.77;;;7.00;65.10;;;;;;4881127;29;20468;-76
2021/01/07 09:42:02;;;;;;;7.63;6.60;;;7.00;64.90;;;;;;4879693;29;20941;-76
2021/01/07 09:44:29;;;;;;;9.60;6.90;;;7.10;65.00;;;;;;4881159;29;20469;-76
2021/01/07 09:46:57;;;;;;;12.90;7.87;;;7.10;65.40;;;;;;4881224;29;20480;-76
2021/01/07 09:49:24;;;;;;;8.40;7.50;;;7.10;65.50;;;;;;4880954;29;20985;-76
2021/01/07 09:51:53;;;;;;;8.27;7.00;;;7.20;65.40;;;;;;4898686;29;20472;-76
2021/01/07 09:54:23;;;;;;;6.90;6.30;;;7.20;65.30;;;;;;4899494;29;20529;-76
2021/01/07 09:56:53;;;;;;;9.87;7.73;;;7.20;64.80;;;;;;4899568;29;20541;-76
2021/01/07 09:59:21;;;;;;;8.60;6.80;;;7.20;64.90;;;;;;4899559;29;20457;-76
2021/01/07 10:01:51;;;;;;;8.27;7.40;;;7.20;65.10;;;;;;4899614;29;20454;-76
2021/01/07 10:04:18;;;;;;;10.40;7.97;;;7.30;64.90;;;;;;4899572;29;20457;-76
2021/01/07 10:06:44;;;;;;;8.10;7.30;;;7.30;64.60;;;;;;4899264;29;20833;-76
2021/01/07 10:09:11;;;;;;;11.67;8.90;;;7.30;64.50;;;;;;4897703;29;20461;-76
2021/01/07 10:11:38;;;;;;;9.50;7.60;;;7.40;64.60;;;;;;4899374;29;20546;-76
2021/01/07 10:14:05;;;;;;;8.80;7.47;;;7.40;64.40;;;;;;4899335;29;20460;-76
2021/01/07 10:16:32;;;;;;;12.10;7.50;;;7.30;64.50;;;;;;4898985;29;20457;-76
2021/01/07 10:18:58;;;;;;;9.93;8.67;;;7.30;64.40;;;;;;4899080;29;20457;-76
2021/01/07 10:21:26;;;;;;;9.60;8.60;;;7.30;64.60;;;;;;4899242;29;20462;-76
2021/01/07 10:23:53;;;;;;;9.47;8.47;;;7.30;63.90;;;;;;4899029;29;20513;-76
2021/01/07 10:26:20;;;;;;;9.40;6.83;;;7.20;64.40;;;;;;4899154;29;20484;-76
2021/01/07 10:28:49;;;;;;;8.27;6.63;;;7.20;64.40;;;;;;4899238;29;20477;-76
2021/01/07 10:31:16;;;;;;;8.87;7.97;;;7.30;64.30;;;;;;4899085;29;20565;-76
2021/01/07 10:33:44;;;;;;;8.57;7.77;;;7.40;65.10;;;;;;4898507;29;20588;-76
2021/01/07 10:36:13;;;;;;;9.87;7.03;;;7.40;64.50;;;;;;4897373;29;20470;-76
2021/01/07 10:38:41;;;;;;;8.67;7.00;;;7.50;64.50;;;;;;4898893;29;20458;-76
2021/01/07 10:41:08;;;;;;;11.47;7.67;;;7.50;64.60;;;;;;4898847;29;20468;-76
2021/01/07 10:43:35;;;;;;;10.13;9.13;;;7.60;64.20;;;;;;4898878;29;20943;-76
2021/01/07 10:46:04;;;;;;;9.23;8.10;;;7.60;63.40;;;;;;4898449;29;20481;-76
2021/01/07 10:48:35;;;;;;;8.67;6.80;;;7.70;63.40;;;;;;4898472;29;20446;-76
2021/01/07 10:51:03;;;;;;;9.33;7.20;;;7.70;63.50;;;;;;4898258;29;20581;-76
2021/01/07 10:54:11;;;;;;;9.07;7.67;;;7.70;63.40;;;;;;4898537;29;20456;-76
2021/01/07 10:57:13;;;;;;;10.70;7.77;;;7.70;62.90;;;;;;4898505;29;20456;-76
2021/01/07 10:59:52;;;;;;;8.00;6.77;;;7.70;62.80;;;;;;4898567;29;20472;-76
2021/01/07 11:02:39;;;;;;;6.63;6.00;;;7.70;63.00;;;;;;4896873;29;20979;-76
2021/01/07 11:05:17;;;;;;;7.83;6.97;;;7.80;62.50;;;;;;4879800;29;20466;-76
2021/01/07 11:07:52;;;;;;;9.07;8.17;;;7.80;62.50;;;;;;4879795;29;20463;-75
2021/01/07 11:10:20;;;;;;;8.90;6.80;;;7.90;62.60;;;;;;4879438;29;20917;-76
2021/01/07 11:12:54;;;;;;;8.63;7.00;;;8.00;62.80;;;;;;4879127;29;20472;-76
2021/01/07 11:15:24;;;;;;;9.83;7.30;;;8.00;61.50;;;;;;4879669;29;20486;-76
2021/01/07 11:17:57;;;;;;;10.13;7.60;;;8.00;61.20;;;;;;4879765;29;20458;-76
2021/01/07 11:20:28;;;;;;;5.63;5.03;;;8.10;60.70;;;;;;4897896;29;20463;-76
2021/01/07 11:22:58;;;;;;;6.23;5.20;;;8.10;60.70;;;;;;4898058;29;20463;-76
2021/01/07 11:25:25;;;;;;;6.43;4.93;;;8.00;60.40;;;;;;4897836;29;20458;-76
2021/01/07 11:27:52;;;;;;;5.50;5.00;;;7.80;58.60;;;;;;4896414;29;20930;-76
2021/01/07 11:30:20;;;;;;;4.77;4.33;;;7.80;59.10;;;;;;4898147;29;20537;-76
2021/01/07 11:32:47;;;;;;;4.93;4.40;;;7.70;58.70;;;;;;4898058;29;20482;-76
2021/01/07 11:35:14;;;;;;;7.17;5.83;;;7.60;58.50;;;;;;4897730;29;20458;-76
2021/01/07 11:37:51;;;;;;;7.17;6.30;;;7.60;59.00;;;;;;4898044;29;20846;-76
2021/01/07 11:40:23;;;;;;;7.17;6.47;;;7.70;59.70;;;;;;4897793;29;20540;-76
2021/01/07 11:43:06;;;;;;;8.43;7.43;;;7.70;59.40;;;;;;4897700;29;20459;-76
2021/01/07 11:45:34;;;;;;;6.00;5.20;;;7.80;58.90;;;;;;4896862;29;20462;-76
2021/01/07 11:48:05;;;;;;;7.33;6.53;;;7.90;58.80;;;;;;4897771;29;20453;-76
2021/01/07 11:50:36;;;;;;;6.00;5.40;;;7.90;59.20;;;;;;4897645;29;20508;-76
2021/01/07 11:53:04;;;;;;;6.83;5.60;;;7.90;59.20;;;;;;4897600;29;20455;-76
2021/01/07 11:55:31;;;;;;;12.67;6.93;;;7.90;59.00;;;;;;4895963;29;20549;-76
2021/01/07 11:57:59;;;;;;;9.37;6.53;;;8.00;59.30;;;;;;4897350;29;20971;-76
2021/01/07 12:00:26;;;;;;;10.83;7.80;;;8.00;59.10;;;;;;4897629;29;20454;-76
2021/01/07 12:02:55;;;;;;;7.93;6.40;;;8.00;59.60;;;;;;4897586;29;20469;-76
2021/01/07 12:05:24;;;;;;;6.47;5.77;;;8.00;59.60;;;;;;4897556;29;20458;-76
2021/01/07 12:08:12;;;;;;;7.93;6.10;;;8.10;59.30;;;;;;4897470;29;20458;-76
2021/01/07 12:10:41;;;;;;;8.63;6.50;;;8.10;58.80;;;;;;4897316;29;21007;-76
2021/01/07 12:13:15;;;;;;;7.90;6.67;;;8.10;58.70;;;;;;4896761;29;20513;-76
2021/01/07 12:15:44;;;;;;;7.00;6.30;;;8.10;58.80;;;;;;4897571;29;20466;-76
2021/01/07 12:18:13;;;;;;;9.30;7.10;;;8.10;58.50;;;;;;4897151;29;20457;-76
2021/01/07 12:20:41;;;;;;;10.03;7.00;;;8.10;58.50;;;;;;4895685;29;21013;-75
2021/01/07 12:23:10;;;;;;;9.47;7.13;;;8.10;58.50;;;;;;4897682;29;20989;-75
2021/01/07 12:25:41;;;;;;;7.70;6.93;;;8.10;58.80;;;;;;4901088;29;20908;-75
2021/01/07 12:28:08;;;;;;;9.80;8.20;;;8.10;58.90;;;;;;4900859;29;20498;-75
2021/01/07 12:30:38;;;;;;;7.63;6.80;;;8.00;58.50;;;;;;4900965;29;20873;-75
2021/01/07 12:33:17;;;;;;;10.47;6.97;;;8.00;58.90;;;;;;4901166;29;20493;-75
2021/01/07 12:35:53;;;;;;;8.67;7.40;;;8.00;59.40;;;;;;4901018;29;20518;-75
2021/01/07 12:38:36;;;;;;;8.27;7.47;;;7.90;59.70;;;;;;4900852;29;20569;-75
2021/01/07 12:41:06;;;;;;;9.37;7.43;;;8.00;60.00;;;;;;4899431;29;20449;-75
2021/01/07 12:43:35;;;;;;;8.87;7.97;;;8.00;59.70;;;;;;4900994;29;20455;-75
2021/01/07 12:46:03;;;;;;;9.60;8.47;;;7.90;59.30;;;;;;4900709;29;20483;-75
2021/01/07 12:48:30;;;;;;;8.07;6.40;;;7.90;59.60;;;;;;4899268;29;20961;-75
2021/01/07 12:50:58;;;;;;;12.90;8.77;;;7.90;59.50;;;;;;4900396;29;20510;-75
2021/01/07 12:53:29;;;;;;;8.90;7.83;;;7.90;59.80;;;;;;4900960;29;21031;-75
2021/01/07 12:55:57;;;;;;;9.77;7.17;;;7.90;60.00;;;;;;4900617;29;20465;-75
2021/01/07 12:58:25;;;;;;;10.30;8.17;;;7.90;60.20;;;;;;4900761;29;20858;-75
2021/01/07 13:00:57;;;;;;;8.67;7.57;;;7.90;60.50;;;;;;4900354;29;20521;-75
2021/01/07 13:03:32;;;;;;;9.47;7.60;;;7.90;60.50;;;;;;4900361;29;20505;-75
2021/01/07 13:06:02;;;;;;;10.17;7.83;;;7.90;60.80;;;;;;4900782;29;20473;-75